KPHN/PHN METAR and TAF weather

Enter ICAO airport designator
Station Type Date Time Source
KPHN METAR 2021/05/15 01:55 UTC NOAA

KPHN 150155Z AUTO 00000KT 10SM CLR 12/M03 A3024 RMK AO


Station Type Date Time Source
KPHN Decoded METAR 2021/05/15 01:55 UTC NOAA

St. Clair County International, MI, United States (KPHN) 42-55N 082-32W
May 14, 2021 - 09:55 PM EDT / 2021.05.15 0155 UTC
Wind: Calm:0
Visibility: 10 mile(s):0
Sky conditions: clear
Temperature: 53 F (12 C)
Dew Point: 26 F (-3 C)
Relative Humidity: 34%
Pressure (altimeter): 30.24 in. Hg (1024 hPa)
ob: KPHN 150155Z AUTO 00000KT 10SM CLR 12/M03 A3024 RMK AO
cycle: 2

Station Type Date Time Source
KPHN TAF UTC NOAA

Error!

Example: see airport list